Time;durP1;ratioP1;P1;durP2;ratioP2;P2;SDS_P1;SDS_P2;PMS_P1;PMS_P2;Temp;Humidity;BMP_temperature;BMP_pressure;BME280_temperature;BME280_humidity;BME280_pressure;Samples;Min_cycle;Max_cycle;Signal;HPM_P1;HPM_P2
2022/07/19 00:00:28;;;;;;;6.68;1.15;;;10.90;99.90;;;;;;5034439;28;20098;-67
2022/07/19 00:02:55;;;;;;;2.13;0.43;;;11.00;99.90;;;;;;5033026;28;20026;-67
2022/07/19 00:05:22;;;;;;;7.97;0.93;;;11.10;99.90;;;;;;5028914;28;20022;-67
2022/07/19 00:07:49;;;;;;;4.40;1.15;;;11.00;99.90;;;;;;5016036;28;20049;-67
2022/07/19 00:10:19;;;;;;;3.85;0.52;;;11.10;99.90;;;;;;5038090;28;20028;-67
2022/07/19 00:12:47;;;;;;;4.28;0.70;;;11.20;99.90;;;;;;5029633;28;20069;-67
2022/07/19 00:15:16;;;;;;;6.63;0.82;;;11.40;99.90;;;;;;5031508;28;21720;-67
2022/07/19 00:17:46;;;;;;;7.68;0.93;;;11.70;99.90;;;;;;5038600;28;20030;-67
2022/07/19 00:20:15;;;;;;;7.38;2.10;;;12.20;99.90;;;;;;5037288;28;20044;-67
2022/07/19 00:22:43;;;;;;;7.70;1.27;;;12.40;99.90;;;;;;5035929;28;20041;-67
2022/07/19 00:25:11;;;;;;;3.70;1.10;;;12.30;99.90;;;;;;5038095;28;20038;-67
2022/07/19 00:27:40;;;;;;;5.05;0.70;;;12.30;99.90;;;;;;5037165;28;20038;-67
2022/07/19 00:30:09;;;;;;;5.95;0.68;;;12.40;99.90;;;;;;5036316;28;20049;-67
2022/07/19 00:32:36;;;;;;;5.35;0.55;;;12.60;99.90;;;;;;5034894;28;20109;-67
2022/07/19 00:35:04;;;;;;;4.05;0.73;;;12.80;99.90;;;;;;5034640;28;20061;-67
2022/07/19 00:37:31;;;;;;;9.85;1.17;;;13.00;99.90;;;;;;5032232;28;20030;-67
2022/07/19 00:39:58;;;;;;;6.18;0.88;;;13.00;99.90;;;;;;5034850;28;20029;-66
2022/07/19 00:42:26;;;;;;;5.47;1.70;;;13.00;99.90;;;;;;5032905;28;20082;-68
2022/07/19 00:44:53;;;;;;;4.13;1.02;;;12.90;99.90;;;;;;5033627;28;20021;-68
2022/07/19 00:47:21;;;;;;;5.03;1.02;;;12.90;99.90;;;;;;5026729;28;20031;-68
2022/07/19 00:49:49;;;;;;;9.60;0.73;;;12.80;99.90;;;;;;5013717;28;20031;-68
2022/07/19 00:52:17;;;;;;;3.97;0.60;;;12.80;99.90;;;;;;5024863;28;20062;-68
2022/07/19 00:54:46;;;;;;;5.43;0.85;;;12.40;99.90;;;;;;5029205;28;20093;-68
2022/07/19 00:57:15;;;;;;;4.15;0.93;;;12.20;99.90;;;;;;5027537;28;20057;-68
2022/07/19 00:59:43;;;;;;;6.22;0.60;;;12.00;99.90;;;;;;5033614;28;20022;-67
2022/07/19 01:02:13;;;;;;;6.38;0.90;;;12.00;99.90;;;;;;5032926;28;20038;-68
2022/07/19 01:04:40;;;;;;;4.78;1.23;;;12.10;99.90;;;;;;5026373;28;20029;-68
2022/07/19 01:07:08;;;;;;;7.85;1.30;;;12.10;99.90;;;;;;5032129;28;20038;-68
2022/07/19 01:09:38;;;;;;;5.47;0.65;;;12.20;99.90;;;;;;5032064;28;20065;-68
2022/07/19 01:12:06;;;;;;;7.90;0.60;;;12.20;99.90;;;;;;5032708;28;20026;-68
2022/07/19 01:14:35;;;;;;;5.55;0.70;;;12.30;99.90;;;;;;5032800;28;20014;-68
2022/07/19 01:17:04;;;;;;;3.97;1.30;;;12.30;99.90;;;;;;5029671;28;20049;-67
2022/07/19 01:19:31;;;;;;;6.75;0.77;;;12.40;99.90;;;;;;5032112;28;20060;-69
2022/07/19 01:21:59;;;;;;;7.95;0.70;;;12.40;99.90;;;;;;5027400;28;20624;-67
2022/07/19 01:24:27;;;;;;;3.80;0.63;;;12.40;99.90;;;;;;5031391;28;20045;-67
2022/07/19 01:26:54;;;;;;;4.25;0.75;;;12.30;99.90;;;;;;5031826;28;20041;-68
2022/07/19 01:29:23;;;;;;;3.92;0.63;;;12.20;99.90;;;;;;5034405;28;20046;-69
2022/07/19 01:31:50;;;;;;;2.83;0.35;;;12.20;99.90;;;;;;5033867;28;20048;-68
2022/07/19 01:34:17;;;;;;;6.05;0.68;;;12.30;99.90;;;;;;5030785;28;20069;-69
2022/07/19 01:36:45;;;;;;;5.22;0.60;;;12.20;99.90;;;;;;5024072;28;20036;-67
2022/07/19 01:39:12;;;;;;;3.30;0.50;;;12.20;99.90;;;;;;5009936;28;20278;-67
2022/07/19 01:41:39;;;;;;;3.95;0.60;;;12.40;99.90;;;;;;5025519;28;20042;-67
2022/07/19 01:44:07;;;;;;;6.88;0.85;;;12.50;99.90;;;;;;5025608;28;20125;-68
2022/07/19 01:46:34;;;;;;;5.60;0.60;;;12.50;99.90;;;;;;5020985;28;20038;-68
2022/07/19 01:49:01;;;;;;;2.95;0.60;;;12.60;99.90;;;;;;5019226;28;20034;-68
2022/07/19 01:51:28;;;;;;;4.72;0.50;;;12.50;99.90;;;;;;5015891;28;20037;-67
2022/07/19 01:53:56;;;;;;;6.10;0.55;;;12.40;99.90;;;;;;5026797;28;20030;-67
2022/07/19 01:56:23;;;;;;;7.07;1.17;;;12.40;99.90;;;;;;5009706;28;20034;-68
2022/07/19 01:58:50;;;;;;;1.67;0.47;;;12.40;99.90;;;;;;5017104;28;20133;-67
2022/07/19 02:01:18;;;;;;;2.78;0.50;;;12.40;99.90;;;;;;5014589;28;20038;-67
2022/07/19 02:03:45;;;;;;;6.22;1.10;;;12.50;99.90;;;;;;5022340;28;20120;-68
2022/07/19 02:06:12;;;;;;;6.40;0.80;;;12.60;99.90;;;;;;5020120;28;20034;-67
2022/07/19 02:08:40;;;;;;;3.80;0.35;;;12.70;99.90;;;;;;5020122;28;20049;-68
2022/07/19 02:13:53;;;;;;;4.55;0.65;;;12.90;99.90;;;;;;5017919;28;20081;-68
2022/07/19 02:16:21;;;;;;;6.28;0.80;;;12.70;99.90;;;;;;5017871;28;20041;-67
2022/07/19 02:18:48;;;;;;;5.38;0.77;;;12.90;99.90;;;;;;5006757;28;20029;-68
2022/07/19 02:21:15;;;;;;;4.53;0.55;;;12.90;99.90;;;;;;5019292;28;20033;-67
2022/07/19 02:23:42;;;;;;;3.63;0.60;;;13.10;99.90;;;;;;5020595;28;20034;-68
2022/07/19 02:26:10;;;;;;;3.47;0.75;;;13.20;99.90;;;;;;5021812;28;20106;-68
2022/07/19 02:28:37;;;;;;;6.65;0.95;;;13.10;99.90;;;;;;5020874;28;20030;-68
2022/07/19 02:31:04;;;;;;;4.20;0.73;;;13.00;99.90;;;;;;5020040;28;20068;-67
2022/07/19 02:33:32;;;;;;;5.75;1.15;;;13.00;99.90;;;;;;5020306;28;20066;-68
2022/07/19 02:35:59;;;;;;;2.83;0.98;;;12.90;99.90;;;;;;5019233;28;20046;-68
2022/07/19 02:38:27;;;;;;;3.35;0.40;;;12.90;99.90;;;;;;4997189;28;20109;-66
2022/07/19 02:40:54;;;;;;;3.22;1.00;;;12.80;99.90;;;;;;5027898;28;20049;-66
2022/07/19 02:43:21;;;;;;;3.22;0.88;;;12.90;99.90;;;;;;5025141;28;20102;-67
2022/07/19 02:45:48;;;;;;;3.00;0.60;;;12.80;99.90;;;;;;5019736;28;20069;-66
2022/07/19 02:48:16;;;;;;;3.35;0.40;;;12.50;99.90;;;;;;5027504;28;20042;-67
2022/07/19 02:50:43;;;;;;;4.55;0.90;;;12.40;99.90;;;;;;5027556;28;20041;-67
2022/07/19 02:53:11;;;;;;;3.40;0.45;;;12.20;99.90;;;;;;5017709;28;20049;-67
2022/07/19 02:55:38;;;;;;;5.32;0.52;;;12.20;99.90;;;;;;5017959;28;20030;-67
2022/07/19 02:58:05;;;;;;;6.25;0.40;;;12.20;99.90;;;;;;5004917;28;20140;-67
2022/07/19 03:00:33;;;;;;;5.30;0.65;;;12.20;99.90;;;;;;5014961;28;20042;-67
2022/07/19 03:05:49;;;;;;;3.08;0.50;;;12.10;99.90;;;;;;4995187;28;20164;-67
2022/07/19 03:08:17;;;;;;;4.03;0.65;;;12.00;99.90;;;;;;5014732;28;20036;-67
2022/07/19 03:10:44;;;;;;;2.13;0.30;;;12.00;99.90;;;;;;5022947;28;20030;-66
2022/07/19 03:13:12;;;;;;;5.78;0.70;;;12.20;99.90;;;;;;5018966;28;20521;-67
2022/07/19 03:15:39;;;;;;;5.72;0.80;;;12.30;99.90;;;;;;5020559;28;20110;-67
2022/07/19 03:18:06;;;;;;;7.07;0.60;;;12.10;99.90;;;;;;5015087;28;20577;-67
2022/07/19 03:20:34;;;;;;;6.88;0.57;;;11.80;99.90;;;;;;5023803;28;20065;-68
2022/07/19 03:23:01;;;;;;;7.57;0.90;;;11.80;99.90;;;;;;5024993;28;20045;-67
2022/07/19 03:25:28;;;;;;;6.90;1.00;;;11.60;99.90;;;;;;5031516;28;20110;-67
2022/07/19 03:27:56;;;;;;;9.43;0.70;;;11.50;99.90;;;;;;5025476;28;20037;-67
2022/07/19 03:30:23;;;;;;;3.92;1.00;;;11.50;99.90;;;;;;5032331;28;20109;-67
2022/07/19 03:32:51;;;;;;;4.75;0.68;;;11.70;99.90;;;;;;5027172;28;20062;-68
2022/07/19 03:35:19;;;;;;;7.82;1.15;;;11.60;99.90;;;;;;5030466;28;20045;-67
2022/07/19 03:37:47;;;;;;;8.10;1.15;;;11.70;99.90;;;;;;5027663;28;20038;-67
2022/07/19 03:40:15;;;;;;;3.17;0.60;;;11.70;99.90;;;;;;5025132;28;20022;-67
2022/07/19 03:42:42;;;;;;;4.95;0.60;;;11.50;99.90;;;;;;5022710;28;20038;-67
2022/07/19 03:45:10;;;;;;;4.53;0.57;;;11.50;99.90;;;;;;5025760;28;20532;-67
2022/07/19 03:47:37;;;;;;;3.95;0.40;;;11.60;99.90;;;;;;5025179;28;20497;-67
2022/07/19 03:50:05;;;;;;;5.38;1.70;;;11.40;99.90;;;;;;5026424;28;20483;-68
2022/07/19 03:52:33;;;;;;;4.35;0.80;;;11.40;99.90;;;;;;5019139;28;20074;-68
2022/07/19 03:55:00;;;;;;;5.25;0.70;;;11.40;99.90;;;;;;5017797;28;20042;-67
2022/07/19 03:57:27;;;;;;;5.57;0.80;;;11.40;99.90;;;;;;5025444;28;20026;-68
2022/07/19 03:59:55;;;;;;;4.88;0.50;;;11.30;99.90;;;;;;5020364;28;20034;-68
2022/07/19 04:02:22;;;;;;;6.28;1.30;;;11.20;99.90;;;;;;5026226;28;20033;-67
2022/07/19 04:04:49;;;;;;;7.90;2.00;;;11.30;99.90;;;;;;5021385;28;20113;-67
2022/07/19 04:07:17;;;;;;;8.18;1.33;;;11.30;99.90;;;;;;5022038;28;20038;-67
2022/07/19 04:09:44;;;;;;;11.18;1.15;;;11.20;99.90;;;;;;5020368;28;20033;-67
2022/07/19 04:12:12;;;;;;;7.65;1.95;;;11.20;99.90;;;;;;5020482;28;20060;-67
2022/07/19 04:14:39;;;;;;;5.43;0.50;;;11.20;99.90;;;;;;5012854;28;20130;-67
2022/07/19 04:17:06;;;;;;;5.20;1.13;;;11.10;99.90;;;;;;5032538;28;20045;-67
2022/07/19 04:19:35;;;;;;;7.35;0.77;;;11.10;99.90;;;;;;5032839;28;20422;-67
2022/07/19 04:22:02;;;;;;;4.13;0.88;;;11.10;99.90;;;;;;5030984;28;20033;-66
2022/07/19 04:24:29;;;;;;;6.90;0.85;;;11.00;99.90;;;;;;5034598;28;20046;-66
2022/07/19 04:26:57;;;;;;;4.05;1.08;;;11.00;99.90;;;;;;5031553;28;20157;-67
2022/07/19 04:29:24;;;;;;;5.90;1.08;;;11.20;99.90;;;;;;5036264;28;20045;-67
2022/07/19 04:31:51;;;;;;;4.97;0.90;;;11.10;99.90;;;;;;5030786;28;20026;-67
2022/07/19 04:34:18;;;;;;;5.65;1.00;;;11.10;99.90;;;;;;5018683;28;20041;-67
2022/07/19 04:36:45;;;;;;;7.47;0.80;;;11.20;99.90;;;;;;5036375;28;20098;-67
2022/07/19 04:39:13;;;;;;;4.65;0.60;;;11.30;99.90;;;;;;5037194;28;20018;-67
2022/07/19 04:41:40;;;;;;;4.97;0.68;;;11.20;99.90;;;;;;5013112;28;20052;-67
2022/07/19 04:44:07;;;;;;;5.07;0.50;;;11.10;99.90;;;;;;5036063;28;20026;-67
2022/07/19 04:46:34;;;;;;;3.78;0.60;;;11.20;99.90;;;;;;5037019;28;20046;-67
2022/07/19 04:49:02;;;;;;;5.05;1.13;;;11.20;99.90;;;;;;5036870;28;20066;-67
2022/07/19 04:51:29;;;;;;;3.25;0.60;;;11.10;99.90;;;;;;5031871;28;20048;-67
2022/07/19 04:53:56;;;;;;;1.67;0.60;;;11.00;99.90;;;;;;5033658;28;20075;-67
2022/07/19 04:56:23;;;;;;;7.57;0.90;;;11.00;99.90;;;;;;5032626;28;20010;-67
2022/07/19 04:58:51;;;;;;;7.07;1.30;;;11.00;99.90;;;;;;5036175;28;20033;-67
2022/07/19 05:01:18;;;;;;;5.63;0.40;;;11.00;99.90;;;;;;5035996;28;20029;-66
2022/07/19 05:03:45;;;;;;;5.32;0.57;;;11.10;99.90;;;;;;5037545;28;20030;-67
2022/07/19 05:06:12;;;;;;;5.03;0.73;;;11.10;99.90;;;;;;5036473;28;20034;-67
2022/07/19 05:08:40;;;;;;;8.05;0.88;;;11.00;99.90;;;;;;5036598;28;20042;-67
2022/07/19 05:11:07;;;;;;;2.97;0.40;;;10.90;99.90;;;;;;5016107;28;20109;-67
2022/07/19 05:13:34;;;;;;;3.67;0.80;;;10.90;99.90;;;;;;5022787;28;20033;-67
2022/07/19 05:16:01;;;;;;;4.32;0.65;;;11.00;99.90;;;;;;5036495;28;20090;-67
2022/07/19 05:18:29;;;;;;;4.40;0.43;;;11.10;99.90;;;;;;5032922;28;20061;-67
2022/07/19 05:20:56;;;;;;;9.25;1.05;;;11.00;99.90;;;;;;5029203;28;20030;-67
2022/07/19 05:23:23;;;;;;;2.75;0.80;;;10.90;99.90;;;;;;5030738;28;20038;-67
2022/07/19 05:25:50;;;;;;;4.18;0.82;;;11.00;99.90;;;;;;5028785;28;20044;-67
2022/07/19 05:28:18;;;;;;;4.55;1.05;;;11.00;99.90;;;;;;5032325;28;20110;-67
2022/07/19 05:30:45;;;;;;;3.55;0.65;;;11.10;99.90;;;;;;5028196;28;20021;-67
2022/07/19 05:33:12;;;;;;;7.68;0.85;;;11.10;99.90;;;;;;5032475;28;20036;-67
2022/07/19 05:35:39;;;;;;;6.30;0.70;;;11.10;99.90;;;;;;5033156;28;20056;-67
2022/07/19 05:38:07;;;;;;;4.72;1.00;;;11.20;99.90;;;;;;5028780;28;20085;-67
2022/07/19 05:40:34;;;;;;;10.10;1.02;;;11.20;99.90;;;;;;5026161;28;20029;-66
2022/07/19 05:43:01;;;;;;;8.75;1.00;;;11.20;99.90;;;;;;5029510;28;20072;-67
2022/07/19 05:45:28;;;;;;;23.25;1.77;;;11.30;99.90;;;;;;5033503;28;20034;-67
2022/07/19 05:47:56;;;;;;;7.45;0.90;;;11.40;99.90;;;;;;5029361;28;20010;-67
2022/07/19 05:50:23;;;;;;;2.72;0.40;;;11.40;99.90;;;;;;5031043;28;20029;-66
2022/07/19 05:52:50;;;;;;;8.90;0.73;;;11.20;99.90;;;;;;5029002;28;20049;-65
2022/07/19 05:55:17;;;;;;;7.57;0.70;;;11.10;99.90;;;;;;5029709;28;20034;-66
2022/07/19 05:57:45;;;;;;;4.38;0.45;;;11.10;99.90;;;;;;5030711;28;20498;-65
2022/07/19 06:00:14;;;;;;;1.95;0.38;;;11.10;99.90;;;;;;5028680;28;20045;-65
2022/07/19 06:02:41;;;;;;;3.08;0.50;;;11.00;99.90;;;;;;5031840;28;20037;-66
2022/07/19 06:05:09;;;;;;;5.03;0.98;;;11.00;99.90;;;;;;5030398;28;20060;-66
2022/07/19 06:07:37;;;;;;;4.65;0.70;;;11.00;99.90;;;;;;5031963;28;20033;-66
2022/07/19 06:10:04;;;;;;;17.40;7.10;;;11.10;99.90;;;;;;5032244;28;20046;-66
2022/07/19 06:12:32;;;;;;;11.95;6.90;;;11.10;99.90;;;;;;5037795;28;20139;-66
2022/07/19 06:14:59;;;;;;;5.82;0.95;;;11.10;99.90;;;;;;5033999;28;20105;-66
2022/07/19 06:17:26;;;;;;;12.95;3.88;;;11.10;99.90;;;;;;5037165;28;20078;-68
2022/07/19 06:19:53;;;;;;;8.45;2.97;;;11.10;99.90;;;;;;5034602;28;20037;-66
2022/07/19 06:22:21;;;;;;;8.05;2.60;;;11.10;99.90;;;;;;5039272;28;20098;-66
2022/07/19 06:24:48;;;;;;;7.00;2.80;;;11.10;99.90;;;;;;5035869;28;20090;-66
2022/07/19 06:27:15;;;;;;;10.70;0.98;;;11.00;99.90;;;;;;5037219;28;20057;-66
2022/07/19 06:29:43;;;;;;;3.42;0.70;;;11.00;99.90;;;;;;5024079;28;20030;-66
2022/07/19 06:32:10;;;;;;;5.30;1.40;;;10.90;99.90;;;;;;5038026;28;20041;-67
2022/07/19 06:34:37;;;;;;;3.53;0.90;;;10.90;99.90;;;;;;5040325;28;20045;-66
2022/07/19 06:37:04;;;;;;;7.07;0.63;;;10.80;99.90;;;;;;5023279;28;20053;-66
2022/07/19 06:39:32;;;;;;;3.90;0.55;;;10.80;99.90;;;;;;5040037;28;20041;-67
2022/07/19 06:41:59;;;;;;;7.20;1.45;;;10.80;99.90;;;;;;5037713;28;20057;-66
2022/07/19 06:44:27;;;;;;;5.80;1.08;;;10.90;99.90;;;;;;5037945;28;20029;-67
2022/07/19 06:46:54;;;;;;;7.93;2.35;;;10.90;99.90;;;;;;5038578;28;20049;-66
2022/07/19 06:49:21;;;;;;;6.45;0.88;;;10.90;99.90;;;;;;5038314;28;20041;-67
2022/07/19 06:51:48;;;;;;;10.32;1.85;;;10.90;99.90;;;;;;5038406;28;20046;-65
2022/07/19 06:54:16;;;;;;;7.07;1.42;;;10.90;99.90;;;;;;5039033;28;20017;-66
2022/07/19 06:56:43;;;;;;;9.25;1.75;;;11.00;99.90;;;;;;5038763;28;20037;-66
2022/07/19 06:59:10;;;;;;;11.60;1.50;;;11.10;99.90;;;;;;5034504;28;20026;-65
2022/07/19 07:01:37;;;;;;;8.20;1.25;;;11.20;99.90;;;;;;5038676;28;20022;-65
2022/07/19 07:04:04;;;;;;;9.25;1.83;;;11.20;99.90;;;;;;5036810;28;20029;-65
2022/07/19 07:06:32;;;;;;;10.90;2.75;;;11.20;99.90;;;;;;5035309;28;20082;-65
2022/07/19 07:08:59;;;;;;;11.07;2.90;;;11.10;99.90;;;;;;5038993;28;20022;-66
2022/07/19 07:11:26;;;;;;;9.40;1.30;;;11.10;99.90;;;;;;5038203;28;20045;-66
2022/07/19 07:13:54;;;;;;;9.63;1.60;;;11.00;99.90;;;;;;5039617;28;20028;-66
2022/07/19 07:16:21;;;;;;;11.50;1.33;;;10.90;99.90;;;;;;5036698;28;20029;-66
2022/07/19 07:18:49;;;;;;;8.60;1.13;;;10.90;99.90;;;;;;5007323;28;20045;-66
2022/07/19 07:21:16;;;;;;;4.82;0.93;;;10.90;99.90;;;;;;5033750;28;20033;-66
2022/07/19 07:23:43;;;;;;;5.22;1.75;;;10.90;99.90;;;;;;5034405;28;20081;-65
2022/07/19 07:26:11;;;;;;;8.90;2.00;;;10.90;99.90;;;;;;5026826;28;20019;-66
2022/07/19 07:28:38;;;;;;;6.50;2.28;;;10.90;99.90;;;;;;5030950;28;20024;-65
2022/07/19 07:31:06;;;;;;;7.82;3.10;;;10.80;99.90;;;;;;5030885;28;20021;-65
2022/07/19 07:33:33;;;;;;;5.47;2.33;;;10.80;99.90;;;;;;5038442;28;20029;-66
2022/07/19 07:36:00;;;;;;;6.63;1.75;;;10.70;99.90;;;;;;5037245;28;20046;-66
2022/07/19 07:38:28;;;;;;;4.57;1.45;;;10.70;99.90;;;;;;5035728;28;20049;-66
2022/07/19 07:40:56;;;;;;;9.10;1.50;;;10.70;99.90;;;;;;5036139;28;20037;-67
2022/07/19 07:43:23;;;;;;;7.88;2.05;;;10.60;99.90;;;;;;5034243;28;20033;-67
2022/07/19 07:45:50;;;;;;;6.57;2.53;;;10.60;99.90;;;;;;5033791;28;20022;-66
2022/07/19 07:48:17;;;;;;;5.10;1.25;;;10.60;99.90;;;;;;5037861;28;20038;-68
2022/07/19 07:50:45;;;;;;;4.15;1.25;;;10.60;99.90;;;;;;5033048;28;20046;-68
2022/07/19 07:53:12;;;;;;;7.32;1.85;;;10.70;99.90;;;;;;5031221;28;20030;-67
2022/07/19 07:55:39;;;;;;;4.05;1.65;;;10.70;99.90;;;;;;5026225;28;20034;-69
2022/07/19 07:58:11;;;;;;;4.30;2.10;;;10.60;99.90;;;;;;5027848;28;20588;-66
2022/07/19 08:00:40;;;;;;;9.05;1.95;;;10.50;99.90;;;;;;5030252;28;20112;-67
2022/07/19 08:03:08;;;;;;;8.45;1.67;;;10.50;99.90;;;;;;5018153;28;20042;-68
2022/07/19 08:05:35;;;;;;;6.47;2.30;;;10.60;99.90;;;;;;5028093;28;20050;-68
2022/07/19 08:08:03;;;;;;;6.03;1.90;;;10.60;99.90;;;;;;5033365;28;20081;-67
2022/07/19 08:10:33;;;;;;;8.68;3.95;;;10.60;99.90;;;;;;5030876;28;20038;-68
2022/07/19 08:13:00;;;;;;;6.05;2.20;;;10.70;99.90;;;;;;5032903;28;20034;-66
2022/07/19 08:15:27;;;;;;;8.27;2.50;;;10.60;99.90;;;;;;5030973;28;20041;-68
2022/07/19 08:17:54;;;;;;;6.10;2.22;;;10.70;99.90;;;;;;5028639;28;20041;-67
2022/07/19 08:20:22;;;;;;;8.60;2.13;;;10.70;99.90;;;;;;5027484;28;20041;-67
2022/07/19 08:22:49;;;;;;;7.30;1.73;;;10.70;99.90;;;;;;5031971;28;20494;-67
2022/07/19 08:25:16;;;;;;;6.20;2.83;;;10.70;99.90;;;;;;5028079;28;20060;-67
2022/07/19 08:27:45;;;;;;;9.60;2.60;;;10.70;99.90;;;;;;5025321;28;20065;-67
2022/07/19 08:30:13;;;;;;;5.30;2.83;;;10.70;99.90;;;;;;5027520;28;20117;-67
2022/07/19 08:32:42;;;;;;;8.93;2.72;;;10.70;99.90;;;;;;5018137;28;20080;-68
2022/07/19 08:35:09;;;;;;;6.50;4.43;;;10.60;99.90;;;;;;5024789;28;20052;-69
2022/07/19 08:37:37;;;;;;;8.13;4.38;;;10.70;99.90;;;;;;5017974;28;20077;-69
2022/07/19 08:40:06;;;;;;;8.88;3.58;;;10.60;99.90;;;;;;5019902;28;20094;-68
2022/07/19 08:42:34;;;;;;;6.97;2.58;;;10.60;99.90;;;;;;5015142;28;20403;-68
2022/07/19 08:45:07;;;;;;;9.52;3.20;;;10.60;99.90;;;;;;5020746;28;20091;-69
2022/07/19 08:47:36;;;;;;;7.18;3.38;;;10.50;99.90;;;;;;5022104;28;20030;-68
2022/07/19 08:50:08;;;;;;;8.25;2.70;;;10.40;99.90;;;;;;5010143;28;20031;-68
2022/07/19 08:52:37;;;;;;;10.32;3.55;;;10.40;99.90;;;;;;5014840;28;20037;-67
2022/07/19 08:55:05;;;;;;;11.75;4.97;;;10.40;99.90;;;;;;5015162;28;20057;-67
2022/07/19 09:00:17;;;;;;;11.70;3.78;;;10.40;99.90;;;;;;5017557;28;20545;-66
2022/07/19 09:02:58;;;;;;;5.55;3.45;;;10.40;99.90;;;;;;5029986;28;20030;-66
2022/07/19 09:05:26;;;;;;;4.45;3.42;;;10.40;99.90;;;;;;5026950;28;20037;-65
2022/07/19 09:08:15;;;;;;;12.55;3.83;;;10.30;99.90;;;;;;5020109;28;20018;-67
2022/07/19 09:13:35;;;;;;;8.52;2.70;;;10.40;99.90;;;;;;5029018;28;20065;-66
2022/07/19 09:16:03;;;;;;;8.73;3.28;;;10.30;99.90;;;;;;5032299;28;20112;-67
2022/07/19 09:18:38;;;;;;;7.38;3.20;;;10.30;99.90;;;;;;5034278;28;20038;-66
2022/07/19 09:21:07;;;;;;;8.85;3.88;;;10.40;99.90;;;;;;5033492;28;20041;-66
2022/07/19 09:23:35;;;;;;;6.78;3.28;;;10.40;99.90;;;;;;5022331;28;20064;-66
2022/07/19 09:26:04;;;;;;;11.32;3.28;;;10.50;99.90;;;;;;5028448;28;20028;-66
2022/07/19 09:28:34;;;;;;;3.97;2.53;;;10.30;99.90;;;;;;5023497;28;20061;-68
2022/07/19 09:31:02;;;;;;;5.25;3.50;;;10.20;99.90;;;;;;5017074;28;20030;-67
2022/07/19 09:33:32;;;;;;;9.80;3.38;;;10.30;99.90;;;;;;5022466;28;20030;-68
2022/07/19 09:36:11;;;;;;;7.85;3.97;;;10.30;99.90;;;;;;5004932;28;20046;-69
2022/07/19 09:38:42;;;;;;;9.50;4.65;;;10.30;99.90;;;;;;5022475;28;20402;-68
2022/07/19 09:41:12;;;;;;;9.68;4.53;;;10.30;99.90;;;;;;5024928;28;20065;-67
2022/07/19 09:43:52;;;;;;;7.53;2.83;;;10.20;99.90;;;;;;5021372;28;20038;-66
2022/07/19 09:46:31;;;;;;;6.72;3.28;;;10.30;99.90;;;;;;5021783;28;20065;-67
2022/07/19 09:49:12;;;;;;;8.27;3.28;;;10.20;99.90;;;;;;5026115;28;20058;-67
2022/07/19 09:51:47;;;;;;;9.30;3.15;;;10.30;99.90;;;;;;5018974;28;20034;-67
2022/07/19 09:54:18;;;;;;;7.53;3.33;;;10.30;99.90;;;;;;5024593;28;20172;-68
2022/07/19 09:56:46;;;;;;;13.68;5.18;;;10.20;99.90;;;;;;5023799;28;20022;-68
2022/07/19 09:59:14;;;;;;;5.53;3.05;;;10.20;99.90;;;;;;5009078;28;20030;-68
2022/07/19 10:01:43;;;;;;;7.55;3.13;;;10.20;99.90;;;;;;5029092;28;20396;-67
2022/07/19 10:04:19;;;;;;;9.82;2.67;;;10.20;99.90;;;;;;5011522;28;20049;-67
2022/07/19 10:06:48;;;;;;;12.02;2.95;;;10.20;99.90;;;;;;5032138;28;20459;-67
2022/07/19 10:09:18;;;;;;;7.63;2.75;;;10.30;99.90;;;;;;5022661;28;20034;-67
2022/07/19 10:11:46;;;;;;;7.35;2.70;;;10.30;99.90;;;;;;5029821;28;20041;-67
2022/07/19 10:14:13;;;;;;;8.00;3.05;;;10.20;99.90;;;;;;5027207;28;20069;-67
2022/07/19 10:16:50;;;;;;;8.55;2.92;;;10.20;99.90;;;;;;5022206;28;20034;-67
2022/07/19 10:19:49;;;;;;;8.55;3.20;;;10.10;99.90;;;;;;5031608;28;20038;-67
2022/07/19 10:22:25;;;;;;;9.32;3.22;;;10.10;99.90;;;;;;5010278;28;20046;-68
2022/07/19 10:24:58;;;;;;;10.50;3.75;;;10.10;99.90;;;;;;5025844;28;20042;-68
2022/07/19 10:27:25;;;;;;;5.93;3.05;;;10.10;99.90;;;;;;5024778;28;20040;-67
2022/07/19 10:30:12;;;;;;;9.27;3.58;;;10.10;99.90;;;;;;5025009;28;20097;-67
2022/07/19 10:32:42;;;;;;;6.50;3.75;;;10.10;99.90;;;;;;5012555;28;20043;-67
2022/07/19 10:35:28;;;;;;;7.28;2.78;;;10.20;99.90;;;;;;5025580;28;20046;-67
2022/07/19 10:38:10;;;;;;;9.15;3.35;;;10.20;99.90;;;;;;5030048;28;20023;-67
2022/07/19 10:40:58;;;;;;;7.93;3.80;;;10.20;99.90;;;;;;5033909;28;20086;-67
2022/07/19 10:43:27;;;;;;;7.80;3.20;;;10.30;99.90;;;;;;5027896;28;20062;-67
2022/07/19 10:46:01;;;;;;;14.23;3.83;;;10.30;99.90;;;;;;5029050;28;20032;-67
2022/07/19 10:48:40;;;;;;;7.10;4.20;;;10.30;99.90;;;;;;5030931;28;20022;-67
2022/07/19 10:51:12;;;;;;;12.10;4.35;;;10.30;99.90;;;;;;5034774;28;20096;-67
2022/07/19 10:53:42;;;;;;;8.02;3.80;;;10.30;99.90;;;;;;5032360;28;20061;-67
2022/07/19 10:56:19;;;;;;;10.95;3.83;;;10.20;99.90;;;;;;5036500;28;20030;-68
2022/07/19 10:59:00;;;;;;;8.30;2.78;;;10.20;99.90;;;;;;5036081;28;20036;-68
2022/07/19 11:01:29;;;;;;;8.18;2.92;;;10.20;99.90;;;;;;5011658;28;20065;-67
2022/07/19 11:04:32;;;;;;;10.50;4.35;;;10.10;99.90;;;;;;5030564;28;20410;-68
2022/07/19 11:07:25;;;;;;;9.02;3.60;;;10.20;99.90;;;;;;5007933;28;20044;-68
2022/07/19 11:09:54;;;;;;;11.27;4.03;;;10.20;99.90;;;;;;5024950;28;20046;-68
2022/07/19 11:12:33;;;;;;;10.93;3.70;;;10.10;99.90;;;;;;5031811;28;20038;-68
2022/07/19 11:15:04;;;;;;;8.80;3.40;;;10.10;99.90;;;;;;5024030;28;20030;-69
2022/07/19 11:17:32;;;;;;;8.38;3.70;;;10.00;99.90;;;;;;5013928;28;20034;-68
2022/07/19 11:20:10;;;;;;;7.60;3.35;;;10.10;99.90;;;;;;5027326;28;20038;-68
2022/07/19 11:22:45;;;;;;;13.68;4.00;;;10.30;99.90;;;;;;5030072;28;20056;-67
2022/07/19 11:25:12;;;;;;;;;;;10.30;99.90;;;;;;5023770;28;20038;-67
2022/07/19 11:27:44;;;;;;;8.25;3.83;;;10.30;99.90;;;;;;5027256;28;19918;-67
2022/07/19 11:30:13;;;;;;;6.32;3.50;;;10.30;99.90;;;;;;5021886;28;20042;-67
2022/07/19 11:32:42;;;;;;;9.68;4.55;;;10.40;99.90;;;;;;5025070;28;20048;-66
2022/07/19 11:35:12;;;;;;;8.02;4.07;;;10.30;99.90;;;;;;5023516;28;20049;-67
2022/07/19 11:37:41;;;;;;;8.15;3.90;;;10.20;99.90;;;;;;5028966;28;20037;-67
2022/07/19 11:40:10;;;;;;;8.85;3.85;;;10.20;99.90;;;;;;5040402;28;20053;-67
2022/07/19 11:42:44;;;;;;;7.22;3.70;;;10.20;99.90;;;;;;5026628;28;20030;-67
2022/07/19 11:45:22;;;;;;;7.68;3.35;;;10.20;99.90;;;;;;5030357;28;20026;-67
2022/07/19 11:47:54;;;;;;;6.78;3.47;;;10.20;99.90;;;;;;5015023;28;20137;-68
2022/07/19 11:50:27;;;;;;;7.78;3.72;;;10.00;99.90;;;;;;5027907;28;20158;-67
2022/07/19 11:52:59;;;;;;;10.27;5.03;;;9.90;99.90;;;;;;5025937;28;20506;-66
2022/07/19 11:55:41;;;;;;;8.90;3.70;;;9.80;99.90;;;;;;5024094;28;20030;-67
2022/07/19 11:58:10;;;;;;;8.73;3.30;;;9.90;99.90;;;;;;5028912;28;20133;-67
2022/07/19 12:00:43;;;;;;;6.85;3.17;;;9.90;99.90;;;;;;5022371;28;20526;-67
2022/07/19 12:03:15;;;;;;;7.93;3.42;;;9.80;99.90;;;;;;5023704;28;20038;-67
2022/07/19 12:05:57;;;;;;;6.03;2.88;;;9.80;99.90;;;;;;5019242;28;20046;-67
2022/07/19 12:08:38;;;;;;;7.93;3.60;;;9.90;99.90;;;;;;5024579;28;20034;-67
2022/07/19 12:11:18;;;;;;;8.57;3.22;;;10.00;99.90;;;;;;5024731;28;20022;-67
2022/07/19 12:13:46;;;;;;;8.88;4.95;;;9.90;99.90;;;;;;5023081;28;20045;-67
2022/07/19 12:16:14;;;;;;;9.77;3.45;;;9.80;99.90;;;;;;5023664;28;20048;-67
2022/07/19 12:18:54;;;;;;;8.35;4.20;;;10.00;99.90;;;;;;5022984;28;20097;-67
2022/07/19 12:21:40;;;;;;;7.40;4.03;;;10.00;99.90;;;;;;5029443;28;20026;-67
2022/07/19 12:24:19;;;;;;;7.60;4.07;;;9.80;99.90;;;;;;5031585;28;20041;-66
2022/07/19 12:26:55;;;;;;;9.80;3.70;;;9.90;99.90;;;;;;5026175;28;20037;-67
2022/07/19 12:29:32;;;;;;;10.50;3.83;;;9.80;99.90;;;;;;5029025;28;20034;-67
2022/07/19 12:32:01;;;;;;;10.02;3.88;;;9.80;99.90;;;;;;5029138;28;20042;-67
2022/07/19 12:34:30;;;;;;;10.90;4.05;;;9.80;99.90;;;;;;5032417;28;20034;-67
2022/07/19 12:36:57;;;;;;;7.90;3.97;;;9.80;99.90;;;;;;5034751;28;20064;-67
2022/07/19 12:39:29;;;;;;;7.70;4.20;;;9.90;99.90;;;;;;5026832;28;20026;-67
2022/07/19 12:42:00;;;;;;;14.00;4.70;;;9.80;99.90;;;;;;5023778;28;20035;-67
2022/07/19 12:44:28;;;;;;;7.80;3.50;;;9.80;99.90;;;;;;5018017;28;20018;-67
2022/07/19 12:46:56;;;;;;;7.95;4.00;;;9.80;99.90;;;;;;5031556;28;20026;-68
2022/07/19 12:49:23;;;;;;;7.22;4.47;;;9.80;99.90;;;;;;5028234;28;20034;-66
2022/07/19 12:51:52;;;;;;;12.25;3.60;;;9.90;99.90;;;;;;5031020;28;20025;-67
2022/07/19 12:54:19;;;;;;;11.30;3.42;;;9.90;99.90;;;;;;5023780;28;20030;-66
2022/07/19 12:56:47;;;;;;;9.50;3.58;;;9.90;99.90;;;;;;5024597;28;20080;-66
2022/07/19 13:01:59;;;;;;;9.45;3.78;;;9.90;99.90;;;;;;5024449;28;20065;-67
2022/07/19 13:04:27;;;;;;;11.50;3.97;;;10.00;99.90;;;;;;5029488;28;20034;-66
2022/07/19 13:06:54;;;;;;;14.10;4.60;;;9.80;99.90;;;;;;5020529;28;20090;-67
2022/07/19 13:09:21;;;;;;;6.15;3.40;;;9.70;99.90;;;;;;5027856;28;20055;-66
2022/07/19 13:11:49;;;;;;;10.30;5.28;;;9.70;99.90;;;;;;5035659;28;20052;-66